Time;durP1;ratioP1;P1;durP2;ratioP2;P2;SDS_P1;SDS_P2;PMS_P1;PMS_P2;Temp;Humidity;BMP_temperature;BMP_pressure;BME280_temperature;BME280_humidity;BME280_pressure;Samples;Min_cycle;Max_cycle;Signal;HPM_P1;HPM_P2
2023/02/11 00:00:03;;;;;;;;;;;;;;;29.53;66.39;101031.06;5099177;27;69506;-35
2023/02/11 00:02:33;;;;;;;;;;;;;;;29.56;67.17;101033.34;5099027;27;66159;-35
2023/02/11 00:05:04;;;;;;;;;;;;;;;29.57;67.58;101038.56;5098619;27;70468;-35
2023/02/11 00:07:34;;;;;;;;;;;;;;;29.58;67.31;101045.59;5078100;27;66403;-35
2023/02/11 00:10:06;;;;;;;;;;;;;;;29.63;67.66;101053.13;5094780;27;69537;-34
2023/02/11 00:12:37;;;;;;;;;;;;;;;29.56;66.77;101057.66;5100445;27;66358;-34
2023/02/11 00:15:07;;;;;;;;;;;;;;;29.37;65.79;101060.16;5098138;27;70022;-34
2023/02/11 00:17:37;;;;;;;;;;;;;;;29.21;65.98;101065.94;5099158;27;66321;-35
2023/02/11 00:20:08;;;;;;;;;;;;;;;29.07;66.01;101061.56;5087585;27;70099;-35
2023/02/11 00:22:38;;;;;;;;;;;;;;;29.00;66.41;101057.97;5098148;27;65741;-33
2023/02/11 00:25:08;;;;;;;;;;;;;;;29.06;67.36;101062.56;5075352;27;69923;-35
2023/02/11 00:27:38;;;;;;;;;;;;;;;29.14;67.83;101065.09;5098683;27;67176;-35
2023/02/11 00:30:09;;;;;;;;;;;;;;;29.08;67.65;101074.84;5077113;27;70075;-32
2023/02/11 00:32:41;;;;;;;;;;;;;;;29.06;67.50;101067.97;5089948;27;66259;-31
2023/02/11 00:35:11;;;;;;;;;;;;;;;29.05;67.64;101083.34;5093574;27;70301;-33
2023/02/11 00:37:41;;;;;;;;;;;;;;;29.03;67.42;101079.16;5096601;27;65851;-31
2023/02/11 00:40:11;;;;;;;;;;;;;;;28.96;67.14;101085.38;5076390;27;70535;-32
2023/02/11 00:42:42;;;;;;;;;;;;;;;28.94;66.84;101087.44;5081252;27;65657;-31
2023/02/11 00:45:12;;;;;;;;;;;;;;;28.90;66.68;101083.50;5073926;27;69400;-35
2023/02/11 00:47:42;;;;;;;;;;;;;;;28.88;66.62;101088.25;5077726;27;65554;-32
2023/02/11 00:50:12;;;;;;;;;;;;;;;28.82;66.36;101089.06;5093352;27;70747;-31
2023/02/11 00:52:42;;;;;;;;;;;;;;;28.77;66.46;101091.53;5092329;27;65983;-32
2023/02/11 00:55:13;;;;;;;;;;;;;;;28.73;66.24;101088.41;5065052;27;70045;-32
2023/02/11 00:57:43;;;;;;;;;;;;;;;28.74;66.46;101097.34;5088504;27;67100;-33
2023/02/11 01:00:13;;;;;;;;;;;;;;;28.87;66.70;101105.50;5095917;27;69722;-33
2023/02/11 01:02:45;;;;;;;;;;;;;;;28.98;66.20;101109.50;5100993;27;68127;-32
2023/02/11 01:05:15;;;;;;;;;;;;;;;29.06;66.09;101108.50;5096072;27;70968;-35
2023/02/11 01:07:45;;;;;;;;;;;;;;;29.14;66.62;101113.72;5080665;27;66289;-33
2023/02/11 01:10:16;;;;;;;;;;;;;;;29.20;66.39;101118.31;5100306;27;69743;-33
2023/02/11 01:12:46;;;;;;;;;;;;;;;29.27;66.24;101127.25;5095287;27;66111;-32
2023/02/11 01:15:18;;;;;;;;;;;;;;;29.31;65.96;101120.44;5075795;27;71481;-35
2023/02/11 01:17:48;;;;;;;;;;;;;;;29.36;65.89;101120.66;5077346;27;66877;-36
2023/02/11 01:20:22;;;;;;;;;;;;;;;29.38;65.88;101118.56;5093492;27;69878;-34
2023/02/11 01:22:52;;;;;;;;;;;;;;;29.42;66.06;101134.38;5069641;27;65868;-34
2023/02/11 01:25:22;;;;;;;;;;;;;;;29.45;65.82;101125.84;5097970;27;70398;-35
2023/02/11 01:27:52;;;;;;;;;;;;;;;29.46;65.73;101130.22;5082402;27;66386;-36
2023/02/11 01:30:22;;;;;;;;;;;;;;;29.45;64.65;101142.06;5072632;27;69573;-34
2023/02/11 01:32:53;;;;;;;;;;;;;;;29.41;63.72;101133.53;5071968;27;66014;-34
2023/02/11 01:35:23;;;;;;;;;;;;;;;29.37;63.62;101140.41;5078739;27;69712;-37
2023/02/11 01:37:54;;;;;;;;;;;;;;;29.33;63.50;101139.97;5083858;27;65428;-34
2023/02/11 01:40:24;;;;;;;;;;;;;;;29.32;62.98;101138.31;5097395;27;71070;-37
2023/02/11 01:42:54;;;;;;;;;;;;;;;29.36;63.61;101144.97;5091551;27;66975;-36
2023/02/11 01:45:39;;;;;;;;;;;;;;;29.37;62.57;101152.03;5093098;27;69213;-34
2023/02/11 01:48:12;;;;;;;;;;;;;;;29.40;62.49;101151.63;5091819;27;67209;-35
2023/02/11 01:50:44;;;;;;;;;;;;;;;29.45;62.80;101153.72;5081278;27;70339;-35
2023/02/11 01:59:01;;;;;;;;;;;;;;;29.59;62.15;101154.59;5056256;27;66335;-34
2023/02/11 02:01:33;;;;;;;;;;;;;;;29.61;61.83;101157.91;5070255;27;70780;-35
2023/02/11 02:04:04;;;;;;;;;;;;;;;29.64;61.61;101160.22;5078303;27;66664;-33
2023/02/11 02:06:39;;;;;;;;;;;;;;;29.69;61.04;101168.56;5094984;27;69962;-34
2023/02/11 02:09:17;;;;;;;;;;;;;;;29.70;61.26;101162.13;5090094;27;66392;-34
2023/02/11 02:11:48;;;;;;;;;;;;;;;29.72;60.73;101160.03;5071537;27;69708;-34
2023/02/11 02:14:18;;;;;;;;;;;;;;;29.72;61.00;101165.44;5090285;27;65577;-36
2023/02/11 02:16:48;;;;;;;;;;;;;;;29.73;60.06;101167.13;5094892;27;69985;-34
2023/02/11 02:19:30;;;;;;;;;;;;;;;29.77;60.48;101168.38;5073897;27;66289;-35
2023/02/11 02:22:13;;;;;;;;;;;;;;;29.81;60.17;101168.78;5090696;27;68627;-40
2023/02/11 02:24:55;;;;;;;;;;;;;;;29.83;59.68;101167.53;5089457;27;65852;-35
2023/02/11 02:27:33;;;;;;;;;;;;;;;29.85;60.01;101170.03;5072084;27;69709;-38
2023/02/11 02:30:22;;;;;;;;;;;;;;;29.89;59.93;101165.88;5088753;27;65965;-35
2023/02/11 02:33:14;;;;;;;;;;;;;;;29.94;60.37;101160.69;5092516;27;70763;-37
2023/02/11 02:36:10;;;;;;;;;;;;;;;29.96;60.00;101163.19;5094316;27;67013;-34
2023/02/11 02:39:00;;;;;;;;;;;;;;;29.99;59.85;101154.66;5092329;27;69794;-35
2023/02/11 02:41:31;;;;;;;;;;;;;;;29.99;60.28;101154.66;5091659;27;65795;-34
2023/02/11 02:44:01;;;;;;;;;;;;;;;30.03;59.56;101145.94;5091022;27;69948;-35
2023/02/11 02:46:33;;;;;;;;;;;;;;;30.05;59.43;101159.22;5075189;27;65637;-34
2023/02/11 02:49:03;;;;;;;;;;;;;;;30.09;59.93;101148.81;5088509;27;70239;-34
2023/02/11 02:52:06;;;;;;;;;;;;;;;30.13;60.90;101156.31;5090303;27;65644;-36
2023/02/11 02:54:41;;;;;;;;;;;;;;;30.13;60.97;101145.50;5069393;27;70631;-35
2023/02/11 02:57:24;;;;;;;;;;;;;;;30.13;61.00;101150.91;5095618;27;66805;-35
2023/02/11 02:59:57;;;;;;;;;;;;;;;30.13;60.96;101150.91;5096083;27;70753;-36
2023/02/11 03:02:41;;;;;;;;;;;;;;;30.14;61.42;101155.25;5095348;27;66940;-35
2023/02/11 03:05:17;;;;;;;;;;;;;;;30.15;62.02;101148.00;5099215;27;69414;-35
2023/02/11 03:08:08;;;;;;;;;;;;;;;30.16;61.53;101147.78;5079943;27;66082;-35
2023/02/11 03:10:41;;;;;;;;;;;;;;;30.16;61.53;101145.06;5062513;27;70424;-34
2023/02/11 03:13:15;;;;;;;;;;;;;;;30.22;61.59;101149.66;5084758;27;66310;-35
2023/02/11 03:15:48;;;;;;;;;;;;;;;30.26;60.90;101145.53;5091819;27;69828;-34
2023/02/11 03:18:21;;;;;;;;;;;;;;;30.30;61.23;101134.28;5074270;27;66638;-37
2023/02/11 03:20:53;;;;;;;;;;;;;;;29.89;61.94;101073.91;5100284;27;69573;-35
2023/02/11 03:23:28;;;;;;;;;;;;;;;30.34;62.57;101141.78;5080446;27;68457;-37
2023/02/11 03:26:04;;;;;;;;;;;;;;;30.35;62.86;101137.19;5100471;27;69841;-39
2023/02/11 03:28:42;;;;;;;;;;;;;;;30.39;62.62;101128.41;5096655;27;66792;-36
2023/02/11 03:31:12;;;;;;;;;;;;;;;30.43;62.55;101124.25;5097554;27;70339;-36
2023/02/11 03:33:51;;;;;;;;;;;;;;;30.46;62.63;101126.53;5076184;27;65581;-37
2023/02/11 03:36:26;;;;;;;;;;;;;;;30.48;62.51;101118.22;5101267;27;69512;-36
2023/02/11 03:38:58;;;;;;;;;;;;;;;30.50;62.89;101113.41;5096485;27;66323;-34
2023/02/11 03:41:30;;;;;;;;;;;;;;;30.53;62.46;101112.97;5100732;27;70495;-37
2023/02/11 03:44:01;;;;;;;;;;;;;;;30.59;61.92;101111.28;5100361;27;65741;-35
2023/02/11 03:46:33;;;;;;;;;;;;;;;30.62;61.11;101106.31;5086122;27;69156;-36
2023/02/11 03:49:07;;;;;;;;;;;;;;;30.69;58.42;101090.84;5095301;27;66072;-35
2023/02/11 03:51:38;;;;;;;;;;;;;;;30.75;58.80;101091.03;5099963;27;70202;-35
2023/02/11 03:54:12;;;;;;;;;;;;;;;30.79;57.65;101095.81;5100787;27;67154;-36
2023/02/11 03:56:53;;;;;;;;;;;;;;;30.82;57.77;101083.78;5074307;27;68446;-37
2023/02/11 03:59:23;;;;;;;;;;;;;;;30.88;57.73;101088.31;5096898;27;66060;-36
2023/02/11 04:01:54;;;;;;;;;;;;;;;30.90;57.53;101081.63;5075500;27;70160;-34
2023/02/11 04:04:24;;;;;;;;;;;;;;;30.92;57.89;101073.28;5092351;27;67710;-37
2023/02/11 04:06:56;;;;;;;;;;;;;;;30.93;57.44;101062.25;5097961;27;69246;-37
2023/02/11 04:09:26;;;;;;;;;;;;;;;30.99;56.77;101065.97;5084096;27;66424;-38
2023/02/11 04:11:56;;;;;;;;;;;;;;;31.02;57.40;101060.09;5095028;27;69750;-35
2023/02/11 04:14:26;;;;;;;;;;;;;;;31.02;57.69;101053.88;5095539;27;65512;-36
2023/02/11 04:16:57;;;;;;;;;;;;;;;31.07;57.83;101046.75;5087179;27;70809;-36
2023/02/11 04:19:27;;;;;;;;;;;;;;;31.13;57.87;101042.34;5100650;27;66984;-36
2023/02/11 04:21:57;;;;;;;;;;;;;;;31.17;57.56;101035.41;5100129;27;70460;-37
2023/02/11 04:24:28;;;;;;;;;;;;;;;31.22;57.94;101023.94;5076179;27;67100;-37
2023/02/11 04:26:58;;;;;;;;;;;;;;;31.26;57.46;101030.56;5091479;27;70091;-37
2023/02/11 04:29:28;;;;;;;;;;;;;;;31.29;57.75;101020.13;5089068;27;65417;-36
2023/02/11 04:31:58;;;;;;;;;;;;;;;31.30;57.10;101013.66;5086973;27;70311;-37
2023/02/11 04:34:30;;;;;;;;;;;;;;;31.33;57.14;101017.78;5092869;27;65414;-37
2023/02/11 04:37:00;;;;;;;;;;;;;;;31.35;57.30;101013.00;5089669;27;70727;-37
2023/02/11 04:39:30;;;;;;;;;;;;;;;31.36;57.54;101010.06;5088294;27;65893;-38
2023/02/11 04:42:00;;;;;;;;;;;;;;;31.38;56.99;101004.44;5093533;27;70316;-35
2023/02/11 04:44:30;;;;;;;;;;;;;;;31.40;56.93;100999.66;5074846;27;65541;-36
2023/02/11 04:47:00;;;;;;;;;;;;;;;31.41;57.28;100989.63;5089227;27;69775;-37
2023/02/11 04:49:30;;;;;;;;;;;;;;;31.42;57.40;100986.69;5095200;27;64204;-36
2023/02/11 04:52:00;;;;;;;;;;;;;;;31.41;57.19;100987.75;5088455;27;68865;-36
2023/02/11 04:54:31;;;;;;;;;;;;;;;31.34;58.19;100984.22;5089622;27;66127;-37
2023/02/11 04:57:02;;;;;;;;;;;;;;;31.28;58.43;100975.09;5089988;27;69965;-38
2023/02/11 04:59:33;;;;;;;;;;;;;;;31.23;58.83;100968.66;5089538;27;66158;-37
2023/02/11 05:02:03;;;;;;;;;;;;;;;31.21;59.27;100973.50;5084234;27;69841;-37
2023/02/11 05:04:33;;;;;;;;;;;;;;;31.21;59.34;100968.09;5090705;27;67225;-38
2023/02/11 05:07:03;;;;;;;;;;;;;;;31.15;59.72;100959.78;5091970;27;68942;-43
2023/02/11 05:09:35;;;;;;;;;;;;;;;31.14;59.94;100952.69;5072904;27;67100;-37
2023/02/11 05:12:05;;;;;;;;;;;;;;;31.14;59.89;100947.25;5088500;27;69767;-41
2023/02/11 05:14:36;;;;;;;;;;;;;;;31.16;59.90;100939.75;5090993;27;65562;-36
2023/02/11 05:17:06;;;;;;;;;;;;;;;31.16;60.07;100928.91;5089193;27;70020;-37
2023/02/11 05:19:36;;;;;;;;;;;;;;;31.20;60.34;100925.75;5080599;27;66024;-38
2023/02/11 05:22:07;;;;;;;;;;;;;;;31.22;60.16;100916.34;5089571;27;69731;-39
2023/02/11 05:24:37;;;;;;;;;;;;;;;31.22;59.86;100920.94;5097550;27;64919;-40
2023/02/11 05:27:08;;;;;;;;;;;;;;;31.23;60.94;100914.47;5092556;27;70280;-37
2023/02/11 05:29:38;;;;;;;;;;;;;;;31.04;59.71;100903.59;5092264;27;66954;-39
2023/02/11 05:32:08;;;;;;;;;;;;;;;30.87;56.94;100897.03;5077906;27;70376;-37
2023/02/11 05:34:39;;;;;;;;;;;;;;;30.67;54.64;100908.00;5089677;27;66653;-39
2023/02/11 05:37:09;;;;;;;;;;;;;;;30.49;53.24;100895.19;5089020;27;70510;-37
2023/02/11 05:39:39;;;;;;;;;;;;;;;30.35;52.19;100894.44;5098606;27;66481;-37
2023/02/11 05:42:09;;;;;;;;;;;;;;;30.25;50.68;100886.78;5095525;27;70465;-36
2023/02/11 05:44:40;;;;;;;;;;;;;;;30.14;49.69;100876.59;5098878;27;66997;-39
2023/02/11 05:47:10;;;;;;;;;;;;;;;30.04;48.48;100873.56;5098871;27;70769;-39
2023/02/11 05:49:41;;;;;;;;;;;;;;;29.94;47.87;100865.88;5101255;27;67439;-36
2023/02/11 05:52:11;;;;;;;;;;;;;;;29.88;47.43;100871.31;5078018;27;70234;-39
2023/02/11 05:54:41;;;;;;;;;;;;;;;29.82;46.51;100867.59;5092141;27;65691;-37
2023/02/11 05:57:12;;;;;;;;;;;;;;;29.73;45.82;100864.31;5083287;27;70324;-41
2023/02/11 05:59:42;;;;;;;;;;;;;;;29.69;45.24;100860.34;5081886;27;66026;-37
2023/02/11 06:02:12;;;;;;;;;;;;;;;29.61;45.28;100850.59;5094381;27;69356;-36
2023/02/11 06:04:43;;;;;;;;;;;;;;;29.61;44.73;100849.72;5089405;27;66325;-37
2023/02/11 06:07:13;;;;;;;;;;;;;;;29.56;44.56;100854.94;5093001;27;69718;-37
2023/02/11 06:09:43;;;;;;;;;;;;;;;29.56;43.77;100846.84;5101178;27;66874;-36
2023/02/11 06:12:13;;;;;;;;;;;;;;;29.55;43.74;100842.47;5095586;27;70784;-38
2023/02/11 06:14:44;;;;;;;;;;;;;;;29.51;43.49;100835.84;5083378;27;66328;-40
2023/02/11 06:17:14;;;;;;;;;;;;;;;29.46;43.23;100839.19;5094505;27;70344;-36
2023/02/11 06:19:44;;;;;;;;;;;;;;;29.44;42.95;100832.31;5085149;27;65800;-36
2023/02/11 06:22:15;;;;;;;;;;;;;;;29.42;43.18;100819.03;5099621;27;70385;-35
2023/02/11 06:24:45;;;;;;;;;;;;;;;29.39;42.58;100820.28;5096546;27;65493;-36
2023/02/11 06:27:30;;;;;;;;;;;;;;;29.40;42.42;100816.53;5082595;27;70603;-37
2023/02/11 06:30:00;;;;;;;;;;;;;;;29.35;42.86;100816.34;5081845;27;66378;-39
2023/02/11 06:32:32;;;;;;;;;;;;;;;29.33;42.52;100810.31;5098091;27;69965;-37
2023/02/11 06:35:17;;;;;;;;;;;;;;;29.32;41.85;100799.72;5092818;27;65361;-38
2023/02/11 06:37:48;;;;;;;;;;;;;;;29.30;41.97;100799.09;5097247;27;69933;-39
2023/02/11 06:40:19;;;;;;;;;;;;;;;29.29;42.06;100797.44;5095946;27;67158;-40
2023/02/11 06:42:49;;;;;;;;;;;;;;;29.22;42.01;100786.66;5098114;27;70601;-41
2023/02/11 06:45:19;;;;;;;;;;;;;;;29.26;41.51;100787.91;5095714;27;66000;-37
2023/02/11 06:47:50;;;;;;;;;;;;;;;29.24;41.76;100778.34;5082207;27;69376;-36
2023/02/11 06:50:20;;;;;;;;;;;;;;;29.22;41.45;100765.03;5090882;27;67775;-37
2023/02/11 06:52:50;;;;;;;;;;;;;;;29.22;41.58;100765.03;5093734;27;69206;-35
2023/02/11 06:55:20;;;;;;;;;;;;;;;29.23;41.18;100761.31;5097981;27;65997;-36
2023/02/11 06:57:51;;;;;;;;;;;;;;;29.23;40.69;100753.22;5091652;27;70390;-38
2023/02/11 07:00:21;;;;;;;;;;;;;;;29.23;41.06;100745.09;5094017;27;65799;-36
2023/02/11 07:02:51;;;;;;;;;;;;;;;29.29;43.81;100744.25;5081319;27;70570;-36
2023/02/11 07:05:22;;;;;;;;;;;;;;;29.25;43.03;100736.78;5087479;27;66189;-37
2023/02/11 07:07:53;;;;;;;;;;;;;;;29.25;42.80;100737.59;5101410;27;70045;-35
2023/02/11 07:10:23;;;;;;;;;;;;;;;29.24;42.54;100733.25;5089912;27;67072;-36
2023/02/11 07:12:53;;;;;;;;;;;;;;;29.25;42.13;100729.50;5091256;27;70590;-37
2023/02/11 07:15:26;;;;;;;;;;;;;;;29.24;41.58;100722.44;5096282;27;66674;-37
2023/02/11 07:17:56;;;;;;;;;;;;;;;29.27;41.42;100722.00;5092782;27;69906;-37
2023/02/11 07:20:26;;;;;;;;;;;;;;;29.26;41.52;100717.66;5094006;27;65208;-38
2023/02/11 07:22:58;;;;;;;;;;;;;;;29.22;41.20;100726.38;5097482;27;69805;-36
2023/02/11 07:25:29;;;;;;;;;;;;;;;29.19;41.41;100711.44;5091442;27;66632;-36
2023/02/11 07:27:59;;;;;;;;;;;;;;;29.22;42.04;100713.72;5075316;27;69874;-36
2023/02/11 07:30:30;;;;;;;;;;;;;;;29.28;42.88;100712.03;5095160;27;66294;-36
2023/02/11 07:33:00;;;;;;;;;;;;;;;28.91;43.11;100645.00;5081513;27;69851;-38
2023/02/11 07:35:31;;;;;;;;;;;;;;;29.60;49.49;100710.22;5082625;27;66370;-38
2023/02/11 07:38:01;;;;;;;;;;;;;;;29.86;52.30;100700.34;5090765;27;70290;-38
2023/02/11 07:40:32;;;;;;;;;;;;;;;30.11;53.66;100708.50;5089667;27;65743;-41
2023/02/11 07:43:02;;;;;;;;;;;;;;;30.34;54.96;100702.50;5088401;27;69880;-38
2023/02/11 07:45:33;;;;;;;;;;;;;;;30.53;55.15;100693.38;5091701;27;66584;-36
2023/02/11 07:48:03;;;;;;;;;;;;;;;30.66;55.43;100690.56;5082309;27;70295;-40
2023/02/11 07:50:33;;;;;;;;;;;;;;;30.77;56.09;100697.13;5096946;27;66073;-38
2023/02/11 07:53:04;;;;;;;;;;;;;;;30.89;55.92;100699.94;5095486;27;69992;-35
2023/02/11 07:55:34;;;;;;;;;;;;;;;30.98;55.90;100690.47;5091641;27;66697;-40
2023/02/11 07:58:04;;;;;;;;;;;;;;;31.06;55.97;100684.75;5095891;27;70094;-34
2023/02/11 08:00:34;;;;;;;;;;;;;;;31.15;56.05;100682.56;5096678;27;65554;-35
2023/02/11 08:03:07;;;;;;;;;;;;;;;31.24;55.88;100688.50;5098007;27;70691;-35
2023/02/11 08:05:38;;;;;;;;;;;;;;;31.29;56.05;100688.66;5096566;27;65745;-37
2023/02/11 08:08:08;;;;;;;;;;;;;;;31.35;56.30;100693.16;5096532;27;70234;-34
2023/02/11 08:10:38;;;;;;;;;;;;;;;31.42;56.56;100688.50;5092479;27;66983;-35
2023/02/11 08:13:08;;;;;;;;;;;;;;;31.46;56.15;100689.72;5097325;27;70690;-38
2023/02/11 08:15:38;;;;;;;;;;;;;;;31.55;56.14;100685.63;5090734;27;66657;-34
2023/02/11 08:18:09;;;;;;;;;;;;;;;31.57;56.26;100680.81;5101024;27;68846;-35
2023/02/11 08:20:39;;;;;;;;;;;;;;;31.63;56.48;100678.22;5090617;27;66932;-37
2023/02/11 08:23:09;;;;;;;;;;;;;;;31.65;56.85;100678.81;5096237;27;69636;-34
2023/02/11 08:25:40;;;;;;;;;;;;;;;31.70;57.22;100674.34;5082606;27;65648;-36
2023/02/11 08:28:10;;;;;;;;;;;;;;;31.72;56.95;100674.94;5069811;27;69837;-35
2023/02/11 08:30:40;;;;;;;;;;;;;;;31.76;57.54;100678.88;5076827;27;66610;-37
2023/02/11 08:33:10;;;;;;;;;;;;;;;31.78;57.21;100682.16;5091351;27;70107;-36
2023/02/11 08:35:41;;;;;;;;;;;;;;;31.84;57.60;100672.25;5095069;27;67118;-36
2023/02/11 08:38:11;;;;;;;;;;;;;;;31.89;57.71;100666.16;5098195;27;69896;-34
2023/02/11 08:40:42;;;;;;;;;;;;;;;31.96;57.54;100666.91;5098655;27;66617;-36
2023/02/11 08:43:12;;;;;;;;;;;;;;;32.00;57.77;100668.91;5097761;27;70172;-35
2023/02/11 08:45:43;;;;;;;;;;;;;;;32.07;57.47;100662.53;5099793;27;65622;-37
2023/02/11 08:48:13;;;;;;;;;;;;;;;32.10;57.27;100667.53;5097227;27;69473;-36
2023/02/11 08:50:43;;;;;;;;;;;;;;;32.10;57.09;100662.94;5088699;27;65422;-36
2023/02/11 08:53:17;;;;;;;;;;;;;;;32.15;57.12;100665.78;5092625;27;70203;-34
2023/02/11 08:55:50;;;;;;;;;;;;;;;32.17;57.30;100662.81;5098025;27;66616;-39
2023/02/11 08:58:21;;;;;;;;;;;;;;;32.21;57.85;100674.88;5096682;27;70097;-36
2023/02/11 09:00:51;;;;;;;;;;;;;;;32.23;58.24;100675.44;5100419;27;65606;-35
2023/02/11 09:03:21;;;;;;;;;;;;;;;32.26;58.14;100680.38;5096694;27;69687;-37
2023/02/11 09:05:53;;;;;;;;;;;;;;;32.28;58.24;100686.41;5092772;27;66044;-36
2023/02/11 09:08:23;;;;;;;;;;;;;;;32.30;58.40;100678.88;5096020;27;69894;-35
2023/02/11 09:10:56;;;;;;;;;;;;;;;32.33;58.01;100689.25;5087575;27;66830;-36
2023/02/11 09:13:27;;;;;;;;;;;;;;;32.32;58.09;100693.03;5095505;27;71695;-37
2023/02/11 09:16:03;;;;;;;;;;;;;;;32.33;57.94;100686.53;5100529;27;66187;-36
2023/02/11 09:18:33;;;;;;;;;;;;;;;32.42;57.72;100690.56;5092141;27;70340;-36
2023/02/11 09:21:04;;;;;;;;;;;;;;;32.57;57.40;100689.28;5095723;27;65376;-37
2023/02/11 09:23:35;;;;;;;;;;;;;;;32.67;57.14;100689.53;5080538;27;69228;-36
2023/02/11 09:26:05;;;;;;;;;;;;;;;32.72;56.57;100681.50;5096816;27;65755;-36
2023/02/11 09:28:37;;;;;;;;;;;;;;;32.81;56.25;100695.53;5095263;27;70692;-39
2023/02/11 09:31:09;;;;;;;;;;;;;;;32.87;55.94;100697.31;5090960;27;66403;-36
2023/02/11 09:33:46;;;;;;;;;;;;;;;32.91;55.63;100695.78;5079535;27;70453;-36
2023/02/11 09:36:18;;;;;;;;;;;;;;;32.96;55.26;100697.75;5087069;27;65721;-36
2023/02/11 09:38:49;;;;;;;;;;;;;;;32.98;55.18;100712.75;5091732;27;70311;-35
2023/02/11 09:41:25;;;;;;;;;;;;;;;33.03;54.99;100703.94;5094621;27;66979;-36
2023/02/11 09:44:01;;;;;;;;;;;;;;;33.05;54.71;100704.53;5099073;27;70388;-36
2023/02/11 09:46:35;;;;;;;;;;;;;;;33.07;54.64;100710.53;5097816;27;66308;-38
2023/02/11 09:49:07;;;;;;;;;;;;;;;33.09;54.18;100708.41;5093263;27;69785;-35
2023/02/11 09:51:46;;;;;;;;;;;;;;;32.71;54.06;100647.25;5096814;27;66557;-38
2023/02/11 09:54:28;;;;;;;;;;;;;;;33.11;53.89;100715.25;5083111;27;69636;-38
2023/02/11 09:56:58;;;;;;;;;;;;;;;33.11;53.71;100711.72;5100499;27;66187;-35
2023/02/11 09:59:28;;;;;;;;;;;;;;;33.12;53.29;100724.22;5097656;27;70280;-35
2023/02/11 10:02:01;;;;;;;;;;;;;;;33.11;53.50;100720.69;5082537;27;65437;-36
2023/02/11 10:04:40;;;;;;;;;;;;;;;33.13;53.15;100725.91;5095157;27;69892;-35
2023/02/11 10:07:14;;;;;;;;;;;;;;;33.15;53.15;100729.19;5089067;27;66221;-38
2023/02/11 10:09:49;;;;;;;;;;;;;;;33.16;52.73;100730.84;5096989;27;69858;-35
2023/02/11 10:12:39;;;;;;;;;;;;;;;33.17;52.94;100734.38;5094637;27;65778;-35
2023/02/11 10:15:16;;;;;;;;;;;;;;;33.17;53.02;100742.53;5062372;27;69799;-36
2023/02/11 10:18:05;;;;;;;;;;;;;;;33.13;52.84;100737.59;5095692;27;66272;-34
2023/02/11 10:20:41;;;;;;;;;;;;;;;33.13;52.74;100737.59;5090188;27;70132;-36
2023/02/11 10:23:18;;;;;;;;;;;;;;;33.13;52.97;100743.03;5081233;27;66171;-38
2023/02/11 10:25:53;;;;;;;;;;;;;;;33.12;53.02;100740.53;5071417;27;70380;-36
2023/02/11 10:28:27;;;;;;;;;;;;;;;33.12;52.96;100746.78;5090818;27;66585;-37
2023/02/11 10:30:59;;;;;;;;;;;;;;;33.12;53.33;100745.97;5094831;27;70392;-36
2023/02/11 10:33:40;;;;;;;;;;;;;;;33.11;53.21;100749.75;5088584;27;66448;-39
2023/02/11 10:36:11;;;;;;;;;;;;;;;33.10;53.33;100742.69;5095740;27;70785;-36
2023/02/11 10:38:42;;;;;;;;;;;;;;;33.10;53.34;100742.69;5089636;27;65570;-37
2023/02/11 10:41:21;;;;;;;;;;;;;;;33.09;53.46;100752.69;5090195;27;70263;-38
2023/02/11 10:43:52;;;;;;;;;;;;;;;33.06;53.82;100752.38;5093693;27;66512;-38
2023/02/11 10:46:25;;;;;;;;;;;;;;;33.06;53.79;100755.06;5076133;27;70295;-35
2023/02/11 10:48:55;;;;;;;;;;;;;;;33.05;54.01;100756.16;5091394;27;66556;-36
2023/02/11 10:51:30;;;;;;;;;;;;;;;33.05;54.02;100762.41;5088765;27;70168;-37
2023/02/11 10:54:03;;;;;;;;;;;;;;;33.04;53.98;100759.91;5092365;27;66393;-35
2023/02/11 10:56:35;;;;;;;;;;;;;;;33.02;54.09;100767.50;5093069;27;69037;-36
2023/02/11 10:59:24;;;;;;;;;;;;;;;33.00;54.22;100770.44;5095486;27;65839;-37
2023/02/11 11:02:00;;;;;;;;;;;;;;;32.97;54.83;100764.63;5094702;27;70730;-36
2023/02/11 11:04:33;;;;;;;;;;;;;;;32.94;54.87;100765.94;5091926;27;66483;-35
2023/02/11 11:07:20;;;;;;;;;;;;;;;32.92;55.00;100777.03;5092307;27;68891;-37
2023/02/11 11:10:01;;;;;;;;;;;;;;;32.91;55.12;100780.00;5073418;27;66170;-37
2023/02/11 11:12:46;;;;;;;;;;;;;;;32.65;57.24;100778.56;5096356;27;69288;-40
2023/02/11 11:15:20;;;;;;;;;;;;;;;32.51;58.43;100788.81;5079185;27;65627;-39
2023/02/11 11:18:07;;;;;;;;;;;;;;;32.40;59.26;100787.72;5073849;27;69738;-40
2023/02/11 11:20:55;;;;;;;;;;;;;;;32.32;59.64;100789.91;5095688;27;66920;-41
2023/02/11 11:23:28;;;;;;;;;;;;;;;32.26;60.26;100791.66;5100306;27;70289;-39
2023/02/11 11:25:58;;;;;;;;;;;;;;;32.20;60.52;100792.59;5098202;27;66637;-41
2023/02/11 11:28:32;;;;;;;;;;;;;;;32.17;61.19;100793.88;5082664;27;70350;-37
2023/02/11 11:31:02;;;;;;;;;;;;;;;32.12;61.61;100796.47;5101647;27;65975;-36
2023/02/11 11:33:34;;;;;;;;;;;;;;;32.10;61.25;100797.78;5089635;27;70683;-37
2023/02/11 11:36:07;;;;;;;;;;;;;;;32.11;61.68;100799.44;5098147;27;65800;-37
2023/02/11 11:38:43;;;;;;;;;;;;;;;32.07;61.63;100804.50;5096759;27;70242;-39
2023/02/11 11:41:14;;;;;;;;;;;;;;;32.05;62.17;100804.72;5100335;27;66073;-40
2023/02/11 11:43:58;;;;;;;;;;;;;;;32.05;63.01;100818.28;5099698;27;70547;-37
2023/02/11 11:46:29;;;;;;;;;;;;;;;32.04;63.11;100811.22;5091546;27;66521;-36
2023/02/11 11:49:06;;;;;;;;;;;;;;;31.98;64.16;100816.72;5098555;27;70587;-37
2023/02/11 11:51:40;;;;;;;;;;;;;;;32.00;64.12;100822.75;5071792;27;66095;-38
2023/02/11 11:54:15;;;;;;;;;;;;;;;32.00;64.20;100823.56;5091281;27;70198;-36
2023/02/11 11:56:59;;;;;;;;;;;;;;;31.96;64.40;100822.38;5090696;27;66438;-39
2023/02/11 11:59:30;;;;;;;;;;;;;;;31.94;64.55;100821.78;5088307;27;70723;-37
2023/02/11 12:02:12;;;;;;;;;;;;;;;31.94;64.97;100829.91;5097893;27;66380;-38
2023/02/11 12:04:45;;;;;;;;;;;;;;;31.92;65.15;100840.16;5094723;27;70422;-41
2023/02/11 12:07:18;;;;;;;;;;;;;;;31.94;64.64;100837.22;5099504;27;66454;-40
2023/02/11 12:09:53;;;;;;;;;;;;;;;31.93;64.71;100839.13;5095868;27;69134;-38
2023/02/11 12:12:31;;;;;;;;;;;;;;;31.92;64.55;100850.19;5093803;27;66562;-37
2023/02/11 12:15:11;;;;;;;;;;;;;;;31.92;64.14;100851.00;5100414;27;70243;-38
2023/02/11 12:17:41;;;;;;;;;;;;;;;31.92;64.04;100847.47;5097216;27;66240;-39
2023/02/11 12:20:16;;;;;;;;;;;;;;;31.92;64.11;100851.00;5098495;27;70386;-39
2023/02/11 12:23:11;;;;;;;;;;;;;;;31.91;63.83;100846.66;5090783;27;67191;-38
2023/02/11 12:25:45;;;;;;;;;;;;;;;31.89;63.98;100854.16;5092715;27;70271;-37
2023/02/11 12:28:24;;;;;;;;;;;;;;;31.89;63.56;100856.84;5095135;27;66600;-38
2023/02/11 12:31:03;;;;;;;;;;;;;;;31.80;62.92;100855.53;5091152;27;69732;-36
2023/02/11 12:33:43;;;;;;;;;;;;;;;31.55;59.71;100861.03;5075387;27;66139;-37
2023/02/11 12:36:20;;;;;;;;;;;;;;;31.22;56.54;100869.47;5094503;27;70480;-38
2023/02/11 12:38:56;;;;;;;;;;;;;;;30.94;54.51;100870.75;5096168;27;66647;-40
2023/02/11 12:44:36;;;;;;;;;;;;;;;30.54;52.32;100864.78;5093111;27;65550;-41
2023/02/11 12:47:13;;;;;;;;;;;;;;;30.45;51.16;100873.16;5100913;27;70246;-40
2023/02/11 12:49:49;;;;;;;;;;;;;;;30.35;49.75;100882.78;5098347;27;66014;-37
2023/02/11 12:52:27;;;;;;;;;;;;;;;30.24;50.02;100882.41;5095202;27;70214;-40
2023/02/11 12:55:21;;;;;;;;;;;;;;;30.19;48.72;100884.91;5078712;27;66091;-37
2023/02/11 12:57:53;;;;;;;;;;;;;;;30.15;48.07;100894.50;5075679;27;70501;-38
2023/02/11 13:00:27;;;;;;;;;;;;;;;30.12;47.80;100894.94;5092687;27;66403;-41
2023/02/11 13:03:21;;;;;;;;;;;;;;;30.04;47.10;100892.47;5090935;27;70242;-40
2023/02/11 13:05:57;;;;;;;;;;;;;;;29.93;46.40;100895.84;5094349;27;66521;-37
2023/02/11 13:08:31;;;;;;;;;;;;;;;29.82;46.75;100900.03;5098201;27;70629;-37
2023/02/11 13:11:11;;;;;;;;;;;;;;;29.68;46.03;100904.66;5081650;27;66957;-40
2023/02/11 13:13:45;;;;;;;;;;;;;;;29.54;46.15;100913.81;5092202;27;69226;-40